createdAt,value
2023-05-20T00:00:32.923Z,9.10
2023-05-20T00:03:01.232Z,10.60
2023-05-20T00:05:28.558Z,10.10
2023-05-20T00:07:55.566Z,11.80
2023-05-20T00:10:22.458Z,10.40
2023-05-20T00:12:49.376Z,10.80
2023-05-20T00:15:16.617Z,10.40
2023-05-20T00:17:43.578Z,11.10
2023-05-20T00:20:10.850Z,10.70
2023-05-20T00:22:37.978Z,11.00
2023-05-20T00:25:05.319Z,10.00
2023-05-20T00:27:32.286Z,10.40
2023-05-20T05:27:45.609Z,6.50
2023-05-20T06:10:52.398Z,6.60
2023-05-20T06:18:04.586Z,5.00
2023-05-20T06:25:16.762Z,3.80
2023-05-20T06:32:30.449Z,4.90
2023-05-20T06:39:44.470Z,4.00
2023-05-20T06:55:35.632Z,6.90
2023-05-20T07:25:02.497Z,4.10
2023-05-20T07:38:01.934Z,4.10
2023-05-20T07:40:29.251Z,3.80
2023-05-20T07:42:56.350Z,4.70
2023-05-20T07:45:24.119Z,3.00
2023-05-20T07:47:51.033Z,4.40
2023-05-20T07:50:18.334Z,4.10
2023-05-20T07:55:23.790Z,3.90
2023-05-20T07:57:51.004Z,4.30
2023-05-20T08:00:19.819Z,4.10
2023-05-20T08:02:47.664Z,3.70
2023-05-20T08:05:18.642Z,3.50
2023-05-20T08:07:46.311Z,2.90
2023-05-20T08:10:13.768Z,2.80
2023-05-20T08:12:42.217Z,2.70
2023-05-20T08:15:10.176Z,3.70
2023-05-20T08:17:38.910Z,3.80
2023-05-20T08:20:08.389Z,2.80
2023-05-20T08:22:37.916Z,2.50
2023-05-20T08:25:08.806Z,3.60
2023-05-20T08:27:39.032Z,2.20
2023-05-20T08:30:10.350Z,3.00
2023-05-20T08:32:40.824Z,3.00
2023-05-20T08:37:35.726Z,2.90
2023-05-20T08:40:05.498Z,2.50
2023-05-20T08:42:32.613Z,2.80
2023-05-20T08:44:59.622Z,4.00
2023-05-20T08:47:27.222Z,3.00
2023-05-20T08:49:54.266Z,2.70
2023-05-20T08:52:21.904Z,3.40
2023-05-20T08:54:50.313Z,2.50
2023-05-20T08:57:17.916Z,2.70
2023-05-20T08:59:45.774Z,2.60
2023-05-20T09:02:16.503Z,3.50
2023-05-20T09:04:43.624Z,2.60
2023-05-20T09:07:10.754Z,2.10
2023-05-20T09:09:37.639Z,2.90
2023-05-20T09:12:04.811Z,2.10
2023-05-20T09:14:32.061Z,2.90
2023-05-20T09:16:59.624Z,2.30
2023-05-20T09:19:26.709Z,2.40
2023-05-20T09:21:54.830Z,3.60
2023-05-20T09:24:25.812Z,4.10
2023-05-20T09:26:53.071Z,2.90
2023-05-20T09:47:42.064Z,2.80
2023-05-20T10:39:46.197Z,4.20
2023-05-20T10:42:38.025Z,2.70
2023-05-20T11:21:03.277Z,3.10
2023-05-20T11:37:02.672Z,3.60
2023-05-20T11:53:02.797Z,3.00
2023-05-20T14:24:16.822Z,2.40
2023-05-20T14:44:39.491Z,1.90
2023-05-20T14:56:24.521Z,3.60
2023-05-20T15:03:36.795Z,2.20
2023-05-20T15:10:48.753Z,1.80
2023-05-20T16:37:39.926Z,2.40
2023-05-20T16:40:09.785Z,2.50
2023-05-20T16:42:40.098Z,1.90
2023-05-20T16:45:08.208Z,2.00
2023-05-20T16:47:37.049Z,2.10
2023-05-20T16:50:04.701Z,2.70
2023-05-20T16:52:33.975Z,2.00
2023-05-20T16:55:05.068Z,2.20
2023-05-20T16:57:32.880Z,2.30
2023-05-20T17:00:07.834Z,1.90
2023-05-20T17:02:35.060Z,3.10
2023-05-20T17:05:02.754Z,2.40
2023-05-20T17:07:29.734Z,1.80
2023-05-20T17:09:56.746Z,2.10
2023-05-20T17:12:23.753Z,3.60
2023-05-20T17:14:51.230Z,2.30
2023-05-20T17:17:18.240Z,2.70
2023-05-20T17:19:45.168Z,2.70
2023-05-20T17:22:12.175Z,1.70
2023-05-20T17:24:39.420Z,2.90
2023-05-20T17:27:06.582Z,2.10
2023-05-20T17:29:33.724Z,2.50
2023-05-20T17:32:00.890Z,3.10
2023-05-20T17:34:28.234Z,3.10
2023-05-20T17:36:57.332Z,1.60
2023-05-20T17:39:24.429Z,1.70
2023-05-20T17:41:51.704Z,1.90
2023-05-20T17:44:18.870Z,2.90
2023-05-20T17:46:46.025Z,2.70
2023-05-20T17:49:13.180Z,3.60
2023-05-20T17:51:42.483Z,3.20
2023-05-20T17:54:09.804Z,2.20
2023-05-20T17:56:37.163Z,2.90
2023-05-20T17:59:06.764Z,2.10
2023-05-20T18:01:36.401Z,1.90
2023-05-20T18:04:06.751Z,2.00
2023-05-20T18:09:07.585Z,1.90
2023-05-20T18:11:35.239Z,1.60
2023-05-20T18:14:02.317Z,1.80
2023-05-20T18:16:32.692Z,1.30
2023-05-20T18:19:03.391Z,1.40
2023-05-20T18:21:30.492Z,1.80
2023-05-20T18:23:57.513Z,2.10
2023-05-20T18:26:24.416Z,2.10
2023-05-20T18:28:51.512Z,2.00
2023-05-20T18:31:18.789Z,1.30
2023-05-20T18:33:46.210Z,1.80
2023-05-20T18:36:13.192Z,2.90
2023-05-20T18:38:41.786Z,1.50
2023-05-20T18:41:09.621Z,2.00
2023-05-20T18:43:36.931Z,2.80
2023-05-20T18:46:04.052Z,2.00
2023-05-20T18:48:31.335Z,1.90
2023-05-20T18:50:58.870Z,1.80
2023-05-20T18:53:25.992Z,1.80
2023-05-20T18:55:53.254Z,2.50
2023-05-20T18:58:20.885Z,1.30
2023-05-20T19:00:48.256Z,1.80
2023-05-20T19:03:15.391Z,1.40
2023-05-20T19:05:42.425Z,1.60
2023-05-20T19:08:09.696Z,1.20
2023-05-20T19:10:36.953Z,1.20
2023-05-20T19:13:04.100Z,1.30
2023-05-20T19:15:31.368Z,1.50
2023-05-20T19:17:58.333Z,1.60
2023-05-20T19:20:25.942Z,2.80
2023-05-20T19:22:52.785Z,1.10
2023-05-20T19:25:20.255Z,1.80
2023-05-20T19:27:47.199Z,1.50
2023-05-20T19:30:14.101Z,1.30
2023-05-20T19:32:47.476Z,1.40
2023-05-20T19:35:14.607Z,1.70
2023-05-20T19:37:41.547Z,0.80
2023-05-20T19:40:09.904Z,2.20
2023-05-20T19:42:36.944Z,32.10
2023-05-20T19:45:04.711Z,14.30
2023-05-20T19:47:31.971Z,4.70
2023-05-20T19:49:58.919Z,3.40
2023-05-20T19:52:26.281Z,1.90
2023-05-20T19:54:53.253Z,1.60
2023-05-20T19:57:20.483Z,2.40
2023-05-20T19:59:47.492Z,1.90
2023-05-20T20:02:15.022Z,3.10
2023-05-20T20:04:42.621Z,4.20
2023-05-20T20:07:11.198Z,7.40
2023-05-20T20:09:38.373Z,7.60
2023-05-20T20:12:06.559Z,8.00
2023-05-20T20:14:33.522Z,5.50
2023-05-20T20:17:00.499Z,4.40
2023-05-20T20:19:28.778Z,4.40
2023-05-20T20:21:56.977Z,5.30
2023-05-20T20:24:27.035Z,3.80
2023-05-20T20:26:54.664Z,2.60
2023-05-20T20:29:22.214Z,2.50
2023-05-20T20:31:49.443Z,2.20
2023-05-20T20:34:16.700Z,1.50
2023-05-20T20:36:45.425Z,1.80
2023-05-20T20:39:21.498Z,1.90
2023-05-20T20:41:52.673Z,2.10
2023-05-20T20:44:22.922Z,1.60
2023-05-20T20:46:55.254Z,1.80
2023-05-20T20:49:23.207Z,2.00
2023-05-20T20:51:50.820Z,1.30
2023-05-20T20:54:18.082Z,1.50
2023-05-20T20:56:47.372Z,1.60
2023-05-20T20:59:16.193Z,1.90
2023-05-20T21:01:44.961Z,1.60
2023-05-20T21:04:15.121Z,1.50
2023-05-20T21:06:42.641Z,1.40
2023-05-20T21:09:10.069Z,2.30
2023-05-20T21:11:43.330Z,1.80
2023-05-20T21:14:10.619Z,1.60
2023-05-20T21:16:37.933Z,2.00
2023-05-20T21:19:05.326Z,2.10
2023-05-20T21:21:32.786Z,1.40
2023-05-20T21:23:59.731Z,1.90
2023-05-20T21:26:26.703Z,2.00
2023-05-20T21:28:53.744Z,2.00
2023-05-20T21:31:21.087Z,1.90
2023-05-20T21:33:48.174Z,2.40
2023-05-20T21:36:15.371Z,2.50
2023-05-20T21:38:42.266Z,3.00
2023-05-20T21:41:09.579Z,2.70
2023-05-20T21:43:37.533Z,2.80
2023-05-20T21:46:05.820Z,2.10
2023-05-20T21:48:33.161Z,1.80
2023-05-20T21:51:03.634Z,3.00
2023-05-20T21:53:30.858Z,2.30
2023-05-20T21:55:57.706Z,1.50
2023-05-20T21:58:24.634Z,1.70
2023-05-20T22:00:51.988Z,2.30
2023-05-20T22:11:08.341Z,2.10
2023-05-20T22:13:35.923Z,2.00
2023-05-20T22:16:05.198Z,2.10
2023-05-20T22:18:32.955Z,2.50
2023-05-20T22:21:01.370Z,3.00
2023-05-20T22:23:28.915Z,2.30
2023-05-20T22:25:59.169Z,2.60
2023-05-20T22:28:26.401Z,2.50
2023-05-20T22:30:56.593Z,2.10
2023-05-20T22:33:24.462Z,3.60
2023-05-20T22:35:51.642Z,2.40
2023-05-20T22:38:18.584Z,2.10
2023-05-20T22:40:46.005Z,2.20
2023-05-20T22:43:13.316Z,1.70
2023-05-20T22:45:40.903Z,3.10
2023-05-20T22:48:08.105Z,3.40
2023-05-20T22:50:35.552Z,2.50
2023-05-20T22:53:03.052Z,3.10
2023-05-20T22:55:30.116Z,2.60
2023-05-20T22:57:57.909Z,3.00
2023-05-20T23:00:24.825Z,1.80
2023-05-20T23:02:52.480Z,3.10
2023-05-20T23:05:19.495Z,3.20
2023-05-20T23:07:46.325Z,3.20
2023-05-20T23:10:13.301Z,2.90
2023-05-20T23:12:40.172Z,3.70
2023-05-20T23:15:08.183Z,4.40
2023-05-20T23:17:35.303Z,3.60
2023-05-20T23:20:05.625Z,4.20
2023-05-20T23:22:32.934Z,4.20
2023-05-20T23:24:59.885Z,2.80
2023-05-20T23:27:26.963Z,4.30
